Time;durP1;ratioP1;P1;durP2;ratioP2;P2;SDS_P1;SDS_P2;PMS_P1;PMS_P2;Temp;Humidity;BMP_temperature;BMP_pressure;BME280_temperature;BME280_humidity;BME280_pressure;Samples;Min_cycle;Max_cycle;Signal;HPM_P1;HPM_P2
2023/05/13 00:02:07;;;;;;;7.77;7.00;;;15.80;28.10;;;;;;4959324;28;20239;-79
2023/05/13 00:04:33;;;;;;;9.03;6.57;;;15.70;30.70;;;;;;4973526;28;20167;-79
2023/05/13 00:07:00;;;;;;;7.83;7.00;;;15.60;32.80;;;;;;4957985;28;20172;-79
2023/05/13 00:09:27;;;;;;;8.43;6.87;;;15.60;35.40;;;;;;4956863;28;20221;-77
2023/05/13 00:11:52;;;;;;;8.43;7.20;;;15.60;38.50;;;;;;4958974;28;20168;-80
2023/05/13 00:14:19;;;;;;;7.63;6.90;;;15.50;40.60;;;;;;4957640;28;20252;-80
2023/05/13 00:16:46;;;;;;;8.23;6.87;;;15.60;41.40;;;;;;4957860;28;20200;-78
2023/05/13 00:19:13;;;;;;;8.17;7.37;;;15.60;40.60;;;;;;4960167;28;20165;-79
2023/05/13 00:21:39;;;;;;;9.07;8.10;;;15.60;41.10;;;;;;4968752;28;20207;-77
2023/05/13 00:24:06;;;;;;;9.00;7.83;;;15.60;43.00;;;;;;4962930;28;20315;-79
2023/05/13 00:26:35;;;;;;;10.00;8.27;;;15.70;40.20;;;;;;4959657;28;20164;-79
2023/05/13 00:29:04;;;;;;;9.40;8.30;;;15.70;39.50;;;;;;4958837;28;20181;-79
2023/05/13 00:31:58;;;;;;;9.30;8.27;;;15.80;38.50;;;;;;4959635;28;20181;-79
2023/05/13 00:34:27;;;;;;;9.00;8.10;;;15.80;38.60;;;;;;4958441;29;20339;-79
2023/05/13 00:36:55;;;;;;;10.93;8.60;;;15.70;41.10;;;;;;4958112;28;20168;-81
2023/05/13 00:39:21;;;;;;;9.67;8.60;;;15.70;41.70;;;;;;4956581;28;20411;-84
2023/05/13 00:41:47;;;;;;;9.43;8.47;;;15.70;42.50;;;;;;4958399;28;20204;-79
2023/05/13 00:44:13;;;;;;;9.50;8.33;;;15.70;44.00;;;;;;4958728;28;20228;-79
2023/05/13 00:46:38;;;;;;;10.50;8.63;;;15.70;44.30;;;;;;4959144;29;20175;-79
2023/05/13 00:49:05;;;;;;;12.83;8.63;;;15.60;47.00;;;;;;4959941;28;20239;-79
2023/05/13 00:51:58;;;;;;;10.23;8.30;;;15.60;50.30;;;;;;4956308;29;20180;-79
2023/05/13 00:54:25;;;;;;;9.97;8.17;;;15.50;51.20;;;;;;4956553;28;20180;-79
2023/05/13 00:56:55;;;;;;;9.40;8.47;;;15.40;56.00;;;;;;4956440;28;20173;-81
2023/05/13 00:59:26;;;;;;;9.70;8.70;;;15.40;58.10;;;;;;4957100;28;20198;-79
2023/05/13 01:02:31;;;;;;;10.33;9.20;;;15.30;59.80;;;;;;4957172;28;20243;-82
2023/05/13 01:05:08;;;;;;;11.47;9.40;;;15.30;63.00;;;;;;4916836;29;20192;-78
2023/05/13 01:07:47;;;;;;;10.70;9.60;;;15.40;61.20;;;;;;4918918;29;20179;-78
2023/05/13 01:10:49;;;;;;;11.40;10.17;;;15.40;61.00;;;;;;4946258;28;20188;-79
2023/05/13 01:13:27;;;;;;;15.47;10.50;;;15.50;61.50;;;;;;4963460;29;20168;-79
2023/05/13 01:16:06;;;;;;;11.20;10.10;;;15.40;61.40;;;;;;4962919;29;20267;-78
2023/05/13 01:18:47;;;;;;;11.93;10.33;;;15.50;60.10;;;;;;4961902;28;20206;-78
2023/05/13 01:21:13;;;;;;;11.93;10.63;;;15.50;60.30;;;;;;4959555;28;20161;-78
2023/05/13 01:23:39;;;;;;;12.80;10.70;;;15.50;61.30;;;;;;4957949;29;20185;-78
2023/05/13 01:26:04;;;;;;;12.07;10.87;;;15.40;64.70;;;;;;4957283;28;20161;-81
2023/05/13 01:28:36;;;;;;;13.47;11.17;;;15.30;69.40;;;;;;4957974;28;20248;-78
2023/05/13 01:31:03;;;;;;;10.90;9.90;;;15.40;69.30;;;;;;4955603;29;20328;-78
2023/05/13 01:33:29;;;;;;;12.63;11.33;;;15.40;69.00;;;;;;4957685;28;20196;-79
2023/05/13 01:35:57;;;;;;;12.40;10.63;;;15.50;66.20;;;;;;4957810;29;20173;-78
2023/05/13 01:38:25;;;;;;;12.87;11.57;;;15.50;67.70;;;;;;4957772;28;20162;-78
2023/05/13 01:40:58;;;;;;;14.20;11.27;;;15.40;70.30;;;;;;4956205;29;20192;-81
2023/05/13 01:43:26;;;;;;;13.90;11.87;;;15.40;72.70;;;;;;4972125;28;20278;-79
2023/05/13 01:45:52;;;;;;;13.10;11.87;;;15.40;71.60;;;;;;4956862;29;20203;-78
2023/05/13 01:48:22;;;;;;;13.20;11.97;;;15.40;72.60;;;;;;4956699;28;20183;-79
2023/05/13 01:50:51;;;;;;;12.80;11.17;;;15.40;75.10;;;;;;4957515;29;20192;-80
2023/05/13 01:53:17;;;;;;;13.10;11.80;;;15.30;76.80;;;;;;4957816;28;20236;-79
2023/05/13 01:55:46;;;;;;;14.20;12.70;;;15.30;77.50;;;;;;4954921;28;20176;-79
2023/05/13 01:58:18;;;;;;;13.23;11.43;;;15.30;77.60;;;;;;4956690;29;20171;-80
2023/05/13 02:00:47;;;;;;;12.93;11.70;;;15.20;78.30;;;;;;4955694;28;20172;-79
2023/05/13 02:03:13;;;;;;;13.80;12.40;;;15.20;79.60;;;;;;4955148;29;20240;-79
2023/05/13 02:05:42;;;;;;;15.57;13.60;;;15.20;80.50;;;;;;4956926;28;20187;-78
2023/05/13 02:08:09;;;;;;;14.53;13.03;;;15.30;78.00;;;;;;4956540;28;20179;-79
2023/05/13 02:10:34;;;;;;;15.40;12.93;;;15.40;75.30;;;;;;4955056;29;20628;-81
2023/05/13 02:13:00;;;;;;;13.90;12.60;;;15.40;73.60;;;;;;4939991;29;20187;-80
2023/05/13 02:15:27;;;;;;;14.17;12.83;;;15.30;73.60;;;;;;4956902;28;20164;-78
2023/05/13 02:17:59;;;;;;;14.03;12.63;;;15.30;74.30;;;;;;4955522;28;20176;-81
2023/05/13 02:20:27;;;;;;;14.40;12.87;;;15.30;72.30;;;;;;4955466;29;20165;-81
2023/05/13 02:22:52;;;;;;;13.93;12.63;;;15.40;71.20;;;;;;4956533;29;20287;-78
2023/05/13 02:25:20;;;;;;;14.47;12.87;;;15.30;72.90;;;;;;4957103;29;20187;-77
2023/05/13 02:27:46;;;;;;;15.93;13.83;;;15.20;74.70;;;;;;4956982;29;20176;-78
2023/05/13 02:30:11;;;;;;;16.93;13.03;;;15.10;76.60;;;;;;4955898;29;20268;-78
2023/05/13 02:32:41;;;;;;;14.80;13.30;;;15.10;78.80;;;;;;4956350;28;20168;-78
2023/05/13 02:35:08;;;;;;;15.13;13.60;;;15.10;78.40;;;;;;4954528;29;20205;-78
2023/05/13 02:37:34;;;;;;;15.93;13.97;;;15.10;79.40;;;;;;4955309;29;20169;-81
2023/05/13 02:40:03;;;;;;;14.87;13.43;;;15.10;79.80;;;;;;4955239;28;20703;-78
2023/05/13 02:42:30;;;;;;;15.53;13.93;;;15.10;79.10;;;;;;4954607;29;20616;-78
2023/05/13 02:45:02;;;;;;;15.80;14.20;;;15.10;81.30;;;;;;4955163;29;20643;-79
2023/05/13 02:47:34;;;;;;;14.80;13.30;;;15.10;79.50;;;;;;4953954;29;20183;-78
2023/05/13 02:50:00;;;;;;;14.00;12.57;;;15.20;76.40;;;;;;4955001;28;20271;-79
2023/05/13 02:52:25;;;;;;;15.20;13.53;;;15.20;76.00;;;;;;4953644;29;20231;-79
2023/05/13 02:54:51;;;;;;;14.90;13.43;;;15.10;76.50;;;;;;4954310;28;20259;-79
2023/05/13 02:57:18;;;;;;;15.03;13.47;;;15.10;76.60;;;;;;4955221;28;20164;-78
2023/05/13 02:59:44;;;;;;;14.40;13.00;;;15.10;78.10;;;;;;4954798;28;20527;-80
2023/05/13 03:02:12;;;;;;;15.30;13.80;;;15.00;78.00;;;;;;4953905;29;20204;-80
2023/05/13 03:04:40;;;;;;;16.73;13.73;;;15.00;79.60;;;;;;4954392;29;20173;-79
2023/05/13 03:07:06;;;;;;;14.83;13.33;;;15.00;79.70;;;;;;4957353;28;20180;-80
2023/05/13 03:09:34;;;;;;;14.70;13.13;;;15.00;78.70;;;;;;4958507;28;20259;-81
2023/05/13 03:12:02;;;;;;;14.53;13.03;;;15.00;75.80;;;;;;4959065;29;20643;-78
2023/05/13 03:14:28;;;;;;;15.50;13.73;;;15.00;78.50;;;;;;4959186;29;20300;-80
2023/05/13 03:16:54;;;;;;;14.93;13.47;;;15.00;75.70;;;;;;4962186;28;20219;-78
2023/05/13 03:19:20;;;;;;;15.33;13.80;;;15.10;74.80;;;;;;4982205;28;20160;-81
2023/05/13 03:21:46;;;;;;;14.83;13.33;;;15.00;75.30;;;;;;4964811;29;20223;-79
2023/05/13 03:24:11;;;;;;;15.37;13.87;;;15.10;75.70;;;;;;4960710;29;20184;-78
2023/05/13 03:26:43;;;;;;;14.43;13.00;;;15.00;76.80;;;;;;4960225;29;20632;-78
2023/05/13 03:29:09;;;;;;;14.83;13.33;;;15.00;72.30;;;;;;4959117;29;20410;-78
2023/05/13 03:31:35;;;;;;;14.43;13.00;;;15.00;72.40;;;;;;4959921;29;20176;-79
2023/05/13 03:34:01;;;;;;;15.23;13.83;;;15.00;72.80;;;;;;4960608;29;20637;-81
2023/05/13 03:36:31;;;;;;;15.30;13.70;;;14.90;73.30;;;;;;4960764;29;20179;-78
2023/05/13 03:38:57;;;;;;;15.13;13.83;;;14.90;75.30;;;;;;4962174;28;20164;-79
2023/05/13 03:41:29;;;;;;;14.83;13.33;;;14.90;72.60;;;;;;4959719;28;20183;-79
2023/05/13 03:44:05;;;;;;;14.97;13.47;;;14.90;70.50;;;;;;4961863;28;20249;-77
2023/05/13 03:47:18;;;;;;;15.23;13.63;;;14.80;71.80;;;;;;4958907;29;20640;-80
2023/05/13 03:50:02;;;;;;;15.63;13.27;;;14.80;73.50;;;;;;4958380;28;20207;-78
2023/05/13 03:52:31;;;;;;;14.60;12.90;;;14.90;70.50;;;;;;4957653;29;20180;-79
2023/05/13 03:54:57;;;;;;;13.80;12.40;;;14.80;67.80;;;;;;4958306;29;20183;-80
2023/05/13 03:57:22;;;;;;;14.50;13.00;;;14.80;70.20;;;;;;4957273;29;20196;-80
2023/05/13 03:59:48;;;;;;;13.93;12.53;;;14.80;69.10;;;;;;4956677;29;20650;-80
2023/05/13 04:02:13;;;;;;;13.63;12.37;;;14.70;69.00;;;;;;4956743;29;20215;-80
2023/05/13 04:04:39;;;;;;;14.23;12.83;;;14.80;66.40;;;;;;4957171;28;20180;-79
2023/05/13 04:07:05;;;;;;;13.47;12.17;;;14.60;66.80;;;;;;4959425;29;20183;-80
2023/05/13 04:09:30;;;;;;;15.30;11.90;;;14.50;67.00;;;;;;4957475;29;20667;-80
2023/05/13 04:11:56;;;;;;;13.17;11.87;;;14.50;68.00;;;;;;4957168;29;20175;-79
2023/05/13 04:14:22;;;;;;;13.40;12.10;;;14.60;66.50;;;;;;4957608;29;20569;-81
2023/05/13 04:16:47;;;;;;;13.30;11.87;;;14.60;62.00;;;;;;4955730;29;20767;-80
2023/05/13 04:19:13;;;;;;;13.00;11.70;;;14.60;58.30;;;;;;4955882;28;20164;-79
2023/05/13 04:21:40;;;;;;;12.80;11.60;;;14.60;58.00;;;;;;4956373;29;20600;-81
2023/05/13 04:24:07;;;;;;;13.10;11.70;;;14.70;53.60;;;;;;4961776;28;20186;-79
2023/05/13 04:26:38;;;;;;;12.57;11.37;;;14.60;53.00;;;;;;4960199;29;20171;-79
2023/05/13 04:29:08;;;;;;;12.40;11.20;;;14.60;50.90;;;;;;4957808;29;20172;-78
2023/05/13 04:31:37;;;;;;;16.20;11.60;;;14.60;50.90;;;;;;4957558;29;20191;-81
2023/05/13 04:34:03;;;;;;;12.60;10.27;;;14.70;48.10;;;;;;4956595;28;20221;-81
2023/05/13 04:36:30;;;;;;;12.73;11.43;;;14.70;45.00;;;;;;4956623;29;20587;-79
2023/05/13 04:38:55;;;;;;;13.60;11.53;;;14.70;41.40;;;;;;4970965;28;20181;-78
2023/05/13 04:41:21;;;;;;;15.17;10.90;;;14.80;36.30;;;;;;4958040;29;20550;-77
2023/05/13 04:43:47;;;;;;;12.33;11.00;;;14.70;35.60;;;;;;4940019;29;20232;-80
2023/05/13 04:46:12;;;;;;;11.93;10.77;;;14.80;32.80;;;;;;4958208;28;20560;-79
2023/05/13 04:48:38;;;;;;;13.07;11.87;;;14.80;32.20;;;;;;4959741;28;20192;-81
2023/05/13 04:51:04;;;;;;;12.87;10.70;;;14.90;32.60;;;;;;4957419;29;20235;-82
2023/05/13 04:53:35;;;;;;;11.77;10.57;;;14.90;30.70;;;;;;4957345;29;20247;-79
2023/05/13 04:56:20;;;;;;;13.37;10.67;;;14.80;29.40;;;;;;4957193;28;20156;-78
2023/05/13 04:58:47;;;;;;;12.03;10.70;;;14.90;24.60;;;;;;4955179;29;20175;-77
2023/05/13 05:01:13;;;;;;;17.60;10.50;;;14.90;27.30;;;;;;4956565;29;20187;-78
2023/05/13 05:03:39;;;;;;;12.33;11.13;;;15.00;25.50;;;;;;4955123;29;20180;-80
2023/05/13 05:06:05;;;;;;;11.90;10.70;;;15.00;25.80;;;;;;4956791;28;20264;-83
2023/05/13 05:08:30;;;;;;;14.97;12.00;;;15.10;22.30;;;;;;4955105;29;20191;-80
2023/05/13 05:10:56;;;;;;;11.20;10.10;;;15.10;23.50;;;;;;4957413;28;20180;-79
2023/05/13 05:13:22;;;;;;;11.73;10.50;;;15.10;19.00;;;;;;4957650;28;20632;-80
2023/05/13 05:15:47;;;;;;;11.17;9.50;;;15.10;19.30;;;;;;4957054;29;20183;-80
2023/05/13 05:18:14;;;;;;;13.70;10.07;;;15.10;15.50;;;;;;4956187;28;20176;-79
2023/05/13 05:20:44;;;;;;;10.30;9.30;;;15.10;14.70;;;;;;4956142;29;20169;-79
2023/05/13 05:23:15;;;;;;;12.37;9.00;;;15.10;10.40;;;;;;4955704;28;20731;-78
2023/05/13 05:25:41;;;;;;;9.93;8.97;;;15.10;1.00;;;;;;4971903;28;20183;-77
2023/05/13 05:28:09;;;;;;;9.10;8.00;;;15.20;5.10;;;;;;4955423;28;20219;-79
2023/05/13 05:30:38;;;;;;;9.73;8.40;;;15.20;1.00;;;;;;4957470;28;20200;-79
2023/05/13 05:33:07;;;;;;;9.60;8.60;;;15.20;1.00;;;;;;4957595;28;20464;-78
2023/05/13 05:35:37;;;;;;;8.40;7.50;;;15.20;1.00;;;;;;4957251;28;20593;-80
2023/05/13 05:38:04;;;;;;;10.60;8.60;;;15.20;1.00;;;;;;4955562;28;20179;-79
2023/05/13 05:40:31;;;;;;;11.30;8.07;;;15.10;1.00;;;;;;4955420;28;20176;-78
2023/05/13 05:42:57;;;;;;;8.47;7.60;;;15.20;1.00;;;;;;4955138;28;20219;-77
2023/05/13 05:45:29;;;;;;;11.03;8.10;;;15.20;1.00;;;;;;4955967;28;20171;-80
2023/05/13 05:47:56;;;;;;;10.23;8.07;;;15.10;1.00;;;;;;4958436;28;20236;-80
2023/05/13 05:50:22;;;;;;;11.60;8.17;;;15.20;1.00;;;;;;4956975;29;20196;-78
2023/05/13 05:52:49;;;;;;;8.87;7.73;;;15.20;1.00;;;;;;4956493;28;20636;-80
2023/05/13 05:55:15;;;;;;;9.27;7.73;;;15.20;1.00;;;;;;4956439;29;20180;-79
2023/05/13 05:57:40;;;;;;;9.37;7.83;;;15.20;1.00;;;;;;4957467;28;20161;-79
2023/05/13 06:00:06;;;;;;;10.00;7.60;;;15.30;1.00;;;;;;4957306;28;20870;-79
2023/05/13 06:02:32;;;;;;;10.40;7.83;;;15.20;1.00;;;;;;4955902;28;20288;-79
2023/05/13 06:04:58;;;;;;;7.67;6.93;;;15.30;1.00;;;;;;4956016;29;20231;-79
2023/05/13 06:07:24;;;;;;;10.33;7.90;;;15.30;1.00;;;;;;4956794;28;20172;-81
2023/05/13 06:09:50;;;;;;;8.83;7.93;;;15.30;1.00;;;;;;4966366;28;20180;-81
2023/05/13 06:12:16;;;;;;;8.33;7.57;;;15.30;1.00;;;;;;4967043;28;20271;-80
2023/05/13 06:14:41;;;;;;;10.10;7.50;;;15.30;1.00;;;;;;4956612;28;20176;-79
2023/05/13 06:17:07;;;;;;;8.17;7.37;;;15.30;1.00;;;;;;4954775;28;20551;-79
2023/05/13 06:19:33;;;;;;;8.70;7.17;;;15.30;1.00;;;;;;4956108;28;20252;-78
2023/05/13 06:21:59;;;;;;;8.03;7.17;;;15.30;1.00;;;;;;4954361;28;20204;-76
2023/05/13 06:24:24;;;;;;;11.20;7.70;;;15.30;1.00;;;;;;4957036;28;20668;-77
2023/05/13 06:26:50;;;;;;;10.37;7.67;;;15.30;1.00;;;;;;4959533;28;20163;-79
2023/05/13 06:29:17;;;;;;;9.73;7.60;;;15.30;1.00;;;;;;4967502;28;20172;-87
2023/05/13 06:31:42;;;;;;;9.83;6.70;;;15.40;1.00;;;;;;4977648;28;20157;-79
2023/05/13 06:34:15;;;;;;;9.03;7.17;;;15.40;1.00;;;;;;4964809;28;20200;-79
2023/05/13 06:36:44;;;;;;;9.83;7.27;;;15.40;1.00;;;;;;4960381;28;20230;-81
2023/05/13 06:39:41;;;;;;;7.37;6.67;;;15.50;1.00;;;;;;4956463;28;20152;-81
2023/05/13 06:42:06;;;;;;;10.70;6.93;;;15.50;1.00;;;;;;4958487;28;20563;-79
2023/05/13 06:44:32;;;;;;;10.27;7.23;;;15.60;1.00;;;;;;4959916;28;20164;-79
2023/05/13 06:46:58;;;;;;;11.77;7.40;;;15.60;1.00;;;;;;4960490;28;20172;-81
2023/05/13 06:49:23;;;;;;;8.07;6.57;;;15.70;1.00;;;;;;4959885;29;20195;-82
2023/05/13 06:51:50;;;;;;;7.77;6.97;;;15.50;1.00;;;;;;4960909;29;20520;-86
2023/05/13 06:54:17;;;;;;;7.87;7.03;;;15.70;1.00;;;;;;4975722;28;20176;-82
2023/05/13 06:56:45;;;;;;;8.50;7.00;;;15.70;1.00;;;;;;4958630;28;20191;-81
2023/05/13 06:59:14;;;;;;;9.13;7.40;;;15.80;1.00;;;;;;4975324;28;20179;-77
2023/05/13 07:01:41;;;;;;;11.30;7.20;;;16.00;1.00;;;;;;4975727;28;20259;-79
2023/05/13 07:04:06;;;;;;;7.37;6.47;;;16.00;1.00;;;;;;4959796;28;20223;-82
2023/05/13 07:06:32;;;;;;;8.07;6.80;;;16.10;1.00;;;;;;4961041;28;20207;-79
2023/05/13 07:09:00;;;;;;;9.77;6.80;;;16.20;1.00;;;;;;4961042;28;20180;-79
2023/05/13 07:11:27;;;;;;;9.97;7.33;;;16.20;1.00;;;;;;4958453;28;20244;-79
2023/05/13 07:13:53;;;;;;;7.60;6.90;;;16.30;1.00;;;;;;4960529;28;20173;-82
2023/05/13 07:16:19;;;;;;;10.33;7.67;;;16.40;1.00;;;;;;4959781;29;20180;-82
2023/05/13 07:18:46;;;;;;;9.93;6.67;;;16.50;1.00;;;;;;4961100;29;20235;-79
2023/05/13 07:21:14;;;;;;;8.83;6.87;;;16.50;1.00;;;;;;4969305;28;20176;-77
2023/05/13 07:23:39;;;;;;;9.50;7.40;;;16.50;1.00;;;;;;4987651;28;20219;-79
2023/05/13 07:26:08;;;;;;;8.03;7.23;;;16.70;1.00;;;;;;4976060;28;20640;-84
2023/05/13 07:28:34;;;;;;;7.77;6.90;;;16.70;1.00;;;;;;4971217;28;20259;-80
2023/05/13 07:31:21;;;;;;;9.93;7.07;;;16.80;1.00;;;;;;4961556;28;20210;-80
2023/05/13 07:33:47;;;;;;;8.60;7.03;;;16.70;1.00;;;;;;4961381;28;20649;-80
2023/05/13 07:36:13;;;;;;;10.20;7.63;;;16.80;1.00;;;;;;4961335;28;20258;-80
2023/05/13 07:38:38;;;;;;;9.83;6.57;;;16.90;1.00;;;;;;4960816;28;20171;-79
2023/05/13 07:41:04;;;;;;;10.17;7.07;;;17.00;1.00;;;;;;4959493;28;20177;-79
2023/05/13 07:43:33;;;;;;;8.97;7.30;;;17.10;1.00;;;;;;4979941;28;20223;-81
2023/05/13 07:46:00;;;;;;;8.53;6.80;;;17.20;1.00;;;;;;4973243;28;20197;-78
2023/05/13 07:48:27;;;;;;;7.67;6.87;;;17.10;1.00;;;;;;4962155;28;20180;-81
2023/05/13 07:50:52;;;;;;;8.77;6.90;;;17.10;1.00;;;;;;4962749;29;20675;-81
2023/05/13 07:53:20;;;;;;;9.00;6.67;;;17.10;1.00;;;;;;4966465;28;20185;-79
2023/05/13 07:55:48;;;;;;;8.43;6.80;;;17.10;1.00;;;;;;4963893;29;20181;-82
2023/05/13 07:58:19;;;;;;;9.37;7.20;;;17.20;1.00;;;;;;4968020;29;20244;-80
2023/05/13 08:00:44;;;;;;;9.40;6.50;;;17.20;1.00;;;;;;4949201;29;20194;-80
2023/05/13 08:03:11;;;;;;;8.93;7.50;;;17.30;1.00;;;;;;4953645;29;20205;-84
2023/05/13 08:05:40;;;;;;;9.80;6.67;;;17.40;1.00;;;;;;4967248;28;20192;-79
2023/05/13 08:08:07;;;;;;;9.27;6.90;;;17.40;1.00;;;;;;5009025;28;20191;-87
2023/05/13 08:10:35;;;;;;;8.93;6.40;;;17.50;1.00;;;;;;4998976;28;20156;-80
2023/05/13 08:13:01;;;;;;;9.73;6.87;;;17.60;1.00;;;;;;4995013;28;20171;-81
2023/05/13 08:15:32;;;;;;;10.20;7.33;;;17.80;1.00;;;;;;4991124;28;20181;-81
2023/05/13 08:17:59;;;;;;;9.63;7.00;;;17.90;1.00;;;;;;4973373;28;20201;-81
2023/05/13 08:20:28;;;;;;;7.57;6.70;;;17.60;1.00;;;;;;4970455;29;20204;-83
2023/05/13 08:23:03;;;;;;;10.50;7.13;;;17.70;1.00;;;;;;4971984;28;20305;-82
2023/05/13 08:25:29;;;;;;;9.00;6.57;;;17.80;1.00;;;;;;4971748;28;20199;-81
2023/05/13 08:27:57;;;;;;;9.23;7.17;;;18.00;1.00;;;;;;4972239;28;20209;-82
2023/05/13 08:30:31;;;;;;;10.53;7.40;;;17.90;1.00;;;;;;4943281;29;20184;-79
2023/05/13 08:33:05;;;;;;;8.03;7.17;;;17.90;1.00;;;;;;4968658;28;20182;-81
2023/05/13 08:35:31;;;;;;;9.23;7.63;;;18.00;1.00;;;;;;4966246;28;20196;-81
2023/05/13 08:38:00;;;;;;;9.23;7.40;;;18.00;1.00;;;;;;4976335;28;20168;-86
2023/05/13 08:40:26;;;;;;;10.40;7.37;;;18.10;1.00;;;;;;4975573;28;20175;-87
2023/05/13 08:42:55;;;;;;;9.50;7.60;;;18.10;1.00;;;;;;4973081;28;20216;-91
2023/05/13 08:45:27;;;;;;;9.97;7.97;;;18.20;1.00;;;;;;4964066;28;20188;-90
2023/05/13 08:48:01;;;;;;;11.00;7.40;;;18.30;1.00;;;;;;4962474;28;20168;-92
2023/05/13 08:50:32;;;;;;;9.47;7.57;;;18.10;1.00;;;;;;4962144;28;20596;-91
2023/05/13 08:52:59;;;;;;;9.20;7.23;;;18.20;1.00;;;;;;4962264;28;20223;-90
2023/05/13 08:55:34;;;;;;;10.37;7.50;;;18.20;1.00;;;;;;4962073;28;20177;-88
2023/05/13 08:58:00;;;;;;;10.07;7.70;;;18.40;1.00;;;;;;4961638;28;20596;-85
2023/05/13 09:00:26;;;;;;;10.03;7.70;;;18.40;1.00;;;;;;4964129;29;20166;-88
2023/05/13 09:02:52;;;;;;;10.63;8.10;;;18.40;1.00;;;;;;4976512;28;20237;-88
2023/05/13 09:05:18;;;;;;;9.20;7.90;;;18.40;1.00;;;;;;4976305;28;20175;-86
2023/05/13 09:07:44;;;;;;;9.33;7.40;;;18.50;1.00;;;;;;4980057;28;20160;-85
2023/05/13 09:10:11;;;;;;;9.03;7.93;;;18.40;1.00;;;;;;4978255;28;20252;-82
2023/05/13 09:12:57;;;;;;;12.80;8.90;;;18.50;1.00;;;;;;4973759;28;20189;-87
2023/05/13 09:15:25;;;;;;;11.60;9.20;;;18.70;1.00;;;;;;4962938;28;20191;-89
2023/05/13 09:18:05;;;;;;;11.50;10.30;;;18.60;1.00;;;;;;4962056;29;20174;-90
2023/05/13 09:20:31;;;;;;;11.33;9.80;;;18.70;1.00;;;;;;4962584;28;20206;-90
2023/05/13 09:23:02;;;;;;;11.10;9.83;;;18.60;1.00;;;;;;4960802;28;20308;-82
2023/05/13 09:25:29;;;;;;;12.90;11.03;;;18.70;1.00;;;;;;4960445;28;20163;-81
2023/05/13 09:27:57;;;;;;;14.00;10.53;;;18.80;1.00;;;;;;4978485;28;20194;-89
2023/05/13 09:30:26;;;;;;;12.20;10.77;;;18.90;1.00;;;;;;4961220;29;20172;-79
2023/05/13 09:33:11;;;;;;;11.90;9.53;;;19.10;1.00;;;;;;4954717;29;20206;-85
2023/05/13 09:35:42;;;;;;;12.80;11.30;;;19.00;1.00;;;;;;4969091;28;20174;-91
2023/05/13 09:38:16;;;;;;;13.60;11.77;;;19.00;1.00;;;;;;4959651;29;20242;-87
2023/05/13 09:40:56;;;;;;;11.23;10.13;;;19.00;1.00;;;;;;4959000;28;20187;-85
2023/05/13 09:43:25;;;;;;;11.80;10.50;;;19.10;1.00;;;;;;4960507;28;20218;-86
2023/05/13 09:46:02;;;;;;;13.03;11.63;;;19.10;1.00;;;;;;4959832;28;20627;-91
2023/05/13 09:48:30;;;;;;;16.27;11.33;;;19.10;1.00;;;;;;4958690;29;20669;-86
2023/05/13 09:50:59;;;;;;;14.47;12.97;;;19.30;1.00;;;;;;4960408;28;20208;-88
2023/05/13 09:53:26;;;;;;;13.87;12.47;;;19.20;1.00;;;;;;4960406;28;20265;-89
2023/05/13 09:55:55;;;;;;;14.97;13.37;;;19.30;1.00;;;;;;4960124;28;20179;-89
2023/05/13 09:58:23;;;;;;;13.00;11.73;;;19.40;1.00;;;;;;4978003;28;20166;-85
2023/05/13 10:00:52;;;;;;;13.57;11.20;;;19.60;1.00;;;;;;4975500;28;20567;-84
2023/05/13 10:03:30;;;;;;;12.23;10.57;;;19.40;1.00;;;;;;4969928;28;20612;-90
2023/05/13 10:06:04;;;;;;;13.93;10.20;;;19.50;1.00;;;;;;4960648;28;20266;-89
2023/05/13 10:08:29;;;;;;;11.03;9.80;;;19.70;1.00;;;;;;4960621;29;20157;-91
2023/05/13 10:10:55;;;;;;;12.83;10.80;;;19.70;1.00;;;;;;4961203;28;20683;-89
2023/05/13 10:13:23;;;;;;;13.57;11.40;;;19.60;1.00;;;;;;4960631;29;20651;-85
2023/05/13 10:15:54;;;;;;;12.87;11.37;;;19.70;1.00;;;;;;4962892;28;20183;-85
2023/05/13 10:18:22;;;;;;;9.53;8.53;;;19.90;1.00;;;;;;4965718;29;20214;-85
2023/05/13 10:20:51;;;;;;;13.03;10.67;;;20.00;1.00;;;;;;4967145;28;20255;-90
2023/05/13 10:23:22;;;;;;;11.73;9.50;;;20.10;1.00;;;;;;4963794;28;20206;-83
2023/05/13 10:25:49;;;;;;;13.20;10.47;;;20.10;1.00;;;;;;4963405;28;20231;-85
2023/05/13 10:28:15;;;;;;;11.57;10.47;;;20.10;1.00;;;;;;4966575;28;20186;-83
2023/05/13 10:30:42;;;;;;;10.93;9.73;;;20.10;1.00;;;;;;4970879;29;20175;-82
2023/05/13 10:33:09;;;;;;;8.83;7.60;;;20.10;1.00;;;;;;4970058;29;20164;-80
2023/05/13 10:35:37;;;;;;;13.43;9.30;;;20.20;99.90;;;;;;4974264;28;20198;-83
2023/05/13 10:38:20;;;;;;;10.70;9.10;;;20.20;99.90;;;;;;4975915;28;20165;-81
2023/05/13 10:41:10;;;;;;;13.60;11.00;;;20.30;99.90;;;;;;4955050;29;20176;-86
2023/05/13 10:43:36;;;;;;;11.53;10.00;;;20.30;99.90;;;;;;4949828;29;20207;-87
2023/05/13 10:46:06;;;;;;;15.20;13.60;;;20.20;1.00;;;;;;4981478;28;20175;-79
2023/05/13 10:48:49;;;;;;;15.03;13.43;;;20.20;1.00;;;;;;4981334;28;20281;-78
2023/05/13 10:51:17;;;;;;;11.87;9.23;;;20.40;1.00;;;;;;4985216;28;20187;-79
2023/05/13 10:53:48;;;;;;;13.20;11.27;;;20.50;1.00;;;;;;4986795;28;20234;-81
2023/05/13 10:56:20;;;;;;;14.77;11.17;;;20.50;1.00;;;;;;4985248;28;20429;-81
2023/05/13 10:59:03;;;;;;;13.60;9.70;;;20.60;1.00;;;;;;4985173;28;20179;-82
2023/05/13 11:01:44;;;;;;;11.30;9.67;;;20.60;99.90;;;;;;4980553;28;20168;-79
2023/05/13 11:04:20;;;;;;;15.83;14.07;;;20.70;1.00;;;;;;4979016;28;20179;-80
2023/05/13 11:06:47;;;;;;;13.40;12.07;;;20.80;1.00;;;;;;4979171;28;20171;-81
2023/05/13 11:09:19;;;;;;;13.03;11.80;;;20.80;1.00;;;;;;4979351;28;20169;-82
2023/05/13 11:12:03;;;;;;;14.43;12.93;;;20.80;99.90;;;;;;4979310;28;20199;-81
2023/05/13 11:14:35;;;;;;;17.83;15.60;;;20.80;1.00;;;;;;4980425;28;20157;-81
2023/05/13 11:17:03;;;;;;;15.67;13.80;;;20.90;1.00;;;;;;4959292;29;20192;-80
2023/05/13 11:19:30;;;;;;;11.90;10.70;;;21.00;1.00;;;;;;4960910;29;20618;-79
2023/05/13 11:22:15;;;;;;;17.50;15.70;;;21.00;99.90;;;;;;4959904;29;20315;-80
2023/05/13 11:25:14;;;;;;;18.10;14.27;;;21.20;1.00;;;;;;4961214;29;20611;-80
2023/05/13 11:27:41;;;;;;;17.27;15.47;;;21.10;1.00;;;;;;4964536;28;20195;-90
2023/05/13 11:30:33;;;;;;;13.73;12.33;;;21.00;1.00;;;;;;4966290;28;20296;-92
2023/05/13 11:33:11;;;;;;;13.27;11.77;;;21.20;1.00;;;;;;4967643;28;20184;-85
2023/05/13 11:35:37;;;;;;;16.47;14.70;;;21.20;1.00;;;;;;4969276;29;20200;-87
2023/05/13 11:38:03;;;;;;;14.77;12.73;;;21.10;1.00;;;;;;4967354;29;20180;-90
2023/05/13 11:40:35;;;;;;;13.80;12.10;;;21.30;1.00;;;;;;4969416;28;20163;-92
2023/05/13 11:43:01;;;;;;;15.97;14.40;;;21.10;99.90;;;;;;4968590;28;20209;-89
2023/05/13 11:45:28;;;;;;;17.53;13.77;;;21.20;1.00;;;;;;4970714;29;20550;-85
2023/05/13 11:47:56;;;;;;;15.17;13.73;;;21.40;1.00;;;;;;4973808;28;20185;-88
2023/05/13 11:50:29;;;;;;;12.90;11.30;;;21.50;1.00;;;;;;4974289;29;20393;-87
2023/05/13 11:52:56;;;;;;;15.27;11.83;;;21.30;99.90;;;;;;4974997;28;20243;-90
2023/05/13 11:55:34;;;;;;;13.23;11.90;;;21.40;1.00;;;;;;4975458;28;20210;-88
2023/05/13 11:58:01;;;;;;;12.80;11.50;;;21.50;1.00;;;;;;4975305;29;20526;-85
2023/05/13 12:00:32;;;;;;;13.40;12.10;;;21.40;99.90;;;;;;4959609;29;20203;-91
2023/05/13 12:03:10;;;;;;;13.23;11.93;;;21.40;99.90;;;;;;4979860;28;20197;-89
2023/05/13 12:05:39;;;;;;;10.07;8.63;;;21.30;99.90;;;;;;4980846;28;20164;-80
2023/05/13 12:08:11;;;;;;;9.33;8.43;;;21.50;24.80;;;;;;4980438;28;20189;-79
2023/05/13 12:10:47;;;;;;;13.70;11.17;;;21.50;1.00;;;;;;4977378;28;20205;-92
2023/05/13 12:13:21;;;;;;;16.27;13.70;;;21.60;99.90;;;;;;4965684;28;20275;-82
2023/05/13 12:15:50;;;;;;;14.80;13.40;;;21.60;1.00;;;;;;4968412;28;20167;-93
2023/05/13 12:18:21;;;;;;;13.23;11.53;;;21.60;1.00;;;;;;4971554;28;20179;-84
2023/05/13 12:21:21;;;;;;;10.53;9.33;;;21.60;1.00;;;;;;4978675;28;20165;-89
2023/05/13 12:23:47;;;;;;;12.80;11.27;;;21.60;99.90;;;;;;4956040;28;20213;-85
2023/05/13 12:26:12;;;;;;;13.93;11.03;;;21.80;99.90;;;;;;4980998;28;20174;-84
2023/05/13 12:28:41;;;;;;;13.80;12.40;;;22.00;99.90;;;;;;4980479;28;20231;-91
2023/05/13 12:31:16;;;;;;;13.57;12.20;;;21.80;99.90;;;;;;4980080;28;20173;-85
2023/05/13 12:34:01;;;;;;;13.77;12.37;;;21.70;1.00;;;;;;4973164;28;20180;-92
2023/05/13 12:36:38;;;;;;;14.17;12.67;;;21.50;1.00;;;;;;4965473;29;20193;-92
2023/05/13 12:39:09;;;;;;;14.00;12.70;;;21.30;1.00;;;;;;4966131;28;20180;-93
2023/05/13 12:41:57;;;;;;;14.87;13.37;;;21.40;1.00;;;;;;4968263;28;20184;-95
2023/05/13 12:44:44;;;;;;;15.40;13.30;;;21.50;1.00;;;;;;4965387;29;20216;-92
2023/05/13 12:47:18;;;;;;;13.67;12.10;;;21.70;1.00;;;;;;4971425;28;20181;-94
2023/05/13 12:50:02;;;;;;;16.53;12.97;;;21.60;1.00;;;;;;4973669;28;20252;-86
2023/05/13 12:52:27;;;;;;;13.70;12.17;;;21.60;1.00;;;;;;4977822;28;20177;-92
2023/05/13 12:54:53;;;;;;;13.83;12.47;;;21.40;1.00;;;;;;4977696;28;20168;-90